Time;durP1;ratioP1;P1;durP2;ratioP2;P2;SDS_P1;SDS_P2;PMS_P1;PMS_P2;Temp;Humidity;BMP_temperature;BMP_pressure;BME280_temperature;BME280_humidity;BME280_pressure;Samples;Min_cycle;Max_cycle;Signal;HPM_P1;HPM_P2
2024/02/04 00:00:17;;;;;;;21.77;17.33;;;10.50;99.90;;;;;;5055135;28;20501;-82
2024/02/04 00:02:44;;;;;;;19.43;16.97;;;10.50;99.90;;;;;;5052870;28;20483;-84
2024/02/04 00:05:11;;;;;;;21.40;17.70;;;10.50;99.90;;;;;;5053938;28;20475;-83
2024/02/04 00:07:38;;;;;;;17.70;15.50;;;10.50;99.90;;;;;;5052639;28;20793;-83
2024/02/04 00:10:07;;;;;;;18.47;16.33;;;10.50;99.90;;;;;;5056693;28;20555;-85
2024/02/04 00:12:34;;;;;;;21.20;15.63;;;10.50;99.90;;;;;;5058554;28;20443;-84
2024/02/04 00:15:04;;;;;;;19.20;15.80;;;10.40;99.90;;;;;;5056692;28;20531;-84
2024/02/04 00:17:32;;;;;;;18.17;14.70;;;10.40;99.90;;;;;;5060554;28;20467;-84
2024/02/04 00:19:59;;;;;;;17.27;14.90;;;10.40;99.90;;;;;;5055766;28;20888;-83
2024/02/04 00:22:35;;;;;;;19.30;15.07;;;10.50;99.90;;;;;;5056970;28;20459;-82
2024/02/04 00:25:11;;;;;;;16.37;14.60;;;10.50;99.90;;;;;;5048051;28;20539;-82
2024/02/04 00:27:38;;;;;;;18.73;14.90;;;10.40;99.90;;;;;;5052514;28;20508;-83
2024/02/04 00:30:06;;;;;;;16.80;13.20;;;10.40;99.90;;;;;;5051688;28;20494;-82
2024/02/04 00:32:33;;;;;;;14.63;12.70;;;10.30;99.90;;;;;;5065696;28;20467;-82
2024/02/04 00:35:02;;;;;;;16.30;13.10;;;10.40;99.90;;;;;;5069026;28;20578;-84
2024/02/04 00:37:29;;;;;;;15.63;13.50;;;10.40;99.90;;;;;;5070959;28;20515;-82
2024/02/04 00:39:58;;;;;;;16.13;13.13;;;10.40;99.90;;;;;;5055946;28;20518;-82
2024/02/04 00:42:26;;;;;;;14.47;12.97;;;10.30;99.90;;;;;;5058686;28;20955;-81
2024/02/04 00:44:53;;;;;;;12.73;11.43;;;10.30;99.90;;;;;;5056742;28;20458;-83
2024/02/04 00:47:20;;;;;;;10.10;8.90;;;10.30;99.90;;;;;;5060257;28;20487;-84
2024/02/04 00:49:47;;;;;;;9.80;7.00;;;10.30;99.90;;;;;;5058982;28;20471;-83
2024/02/04 00:52:14;;;;;;;10.27;8.20;;;10.30;99.90;;;;;;5056977;28;20458;-82
2024/02/04 00:54:40;;;;;;;10.50;8.97;;;10.30;99.90;;;;;;5050519;28;20897;-83
2024/02/04 00:57:07;;;;;;;8.80;7.90;;;10.30;99.90;;;;;;5054404;28;20461;-83
2024/02/04 00:59:35;;;;;;;10.90;7.03;;;10.30;99.90;;;;;;5055652;28;20473;-82
2024/02/04 01:02:02;;;;;;;8.10;7.30;;;10.30;99.90;;;;;;5056197;28;20474;-84
2024/02/04 01:04:29;;;;;;;8.13;7.23;;;10.20;99.90;;;;;;5056056;28;20466;-82
2024/02/04 01:06:56;;;;;;;8.40;6.83;;;10.20;99.90;;;;;;5053334;28;20463;-83
2024/02/04 01:09:22;;;;;;;7.23;6.00;;;10.20;99.90;;;;;;5055563;28;20465;-83
2024/02/04 01:11:55;;;;;;;7.00;6.30;;;10.20;99.90;;;;;;5047009;28;20471;-82
2024/02/04 01:14:22;;;;;;;7.80;6.17;;;10.20;99.90;;;;;;5056296;28;20480;-82
2024/02/04 01:16:50;;;;;;;7.77;5.00;;;10.20;99.90;;;;;;5055361;28;20528;-81
2024/02/04 01:19:17;;;;;;;5.70;5.10;;;10.30;99.90;;;;;;5055420;28;20474;-83
2024/02/04 01:21:44;;;;;;;4.90;4.40;;;10.30;99.90;;;;;;5055779;28;20454;-82
2024/02/04 01:24:11;;;;;;;4.97;4.47;;;10.30;99.90;;;;;;5056163;28;20460;-83
2024/02/04 01:26:38;;;;;;;4.97;4.47;;;10.30;99.90;;;;;;5047887;28;20552;-81
2024/02/04 01:29:05;;;;;;;5.00;4.23;;;10.40;99.90;;;;;;5050702;28;20471;-82
2024/02/04 01:31:33;;;;;;;5.10;3.90;;;10.30;99.90;;;;;;5048720;28;20538;-82
2024/02/04 01:34:02;;;;;;;3.97;3.57;;;10.30;99.90;;;;;;5056834;28;20543;-82
2024/02/04 01:36:30;;;;;;;5.17;3.97;;;10.30;99.90;;;;;;5047187;28;20519;-83
2024/02/04 01:38:57;;;;;;;4.90;4.30;;;10.30;99.90;;;;;;5059191;28;20478;-84
2024/02/04 01:41:27;;;;;;;5.60;3.67;;;10.30;99.90;;;;;;5051299;28;20454;-81
2024/02/04 01:43:54;;;;;;;4.77;4.17;;;10.30;99.90;;;;;;5053717;28;20858;-83
2024/02/04 01:46:22;;;;;;;3.87;3.50;;;10.30;99.90;;;;;;5045003;28;20820;-82
2024/02/04 01:48:49;;;;;;;5.77;4.33;;;10.30;99.90;;;;;;5056287;28;20537;-81
2024/02/04 01:51:18;;;;;;;4.03;3.63;;;10.30;99.90;;;;;;5050092;28;20464;-83
2024/02/04 01:53:47;;;;;;;4.70;4.20;;;10.30;99.90;;;;;;5057621;28;20554;-82
2024/02/04 01:56:14;;;;;;;5.40;4.10;;;10.30;99.90;;;;;;5052367;28;20483;-83
2024/02/04 01:58:41;;;;;;;5.20;4.70;;;10.30;99.90;;;;;;5060482;28;20563;-83
2024/02/04 02:01:08;;;;;;;5.47;4.97;;;10.30;99.90;;;;;;5053937;28;20451;-82
2024/02/04 02:03:36;;;;;;;5.27;4.77;;;10.30;99.90;;;;;;5056707;28;20488;-82
2024/02/04 02:06:05;;;;;;;5.10;4.03;;;10.30;99.90;;;;;;5057712;28;20448;-82
2024/02/04 02:08:33;;;;;;;7.37;5.30;;;10.40;99.90;;;;;;5058456;28;20479;-82
2024/02/04 02:11:08;;;;;;;6.83;6.13;;;10.30;99.90;;;;;;5056470;28;20480;-83
2024/02/04 02:13:37;;;;;;;5.70;5.20;;;10.30;99.90;;;;;;5051345;28;20463;-83
2024/02/04 02:16:12;;;;;;;5.97;5.33;;;10.30;99.90;;;;;;5051905;28;20579;-83
2024/02/04 02:18:44;;;;;;;7.70;6.70;;;10.30;99.90;;;;;;5058657;28;20463;-83
2024/02/04 02:21:19;;;;;;;6.63;5.93;;;10.30;99.90;;;;;;5053078;28;20451;-82
2024/02/04 02:24:09;;;;;;;7.90;6.87;;;10.30;99.90;;;;;;5058327;28;20571;-83
2024/02/04 02:26:39;;;;;;;8.60;7.53;;;10.40;99.90;;;;;;5052012;28;20503;-83
2024/02/04 02:29:08;;;;;;;7.93;7.10;;;10.40;99.90;;;;;;5052591;28;20500;-84
2024/02/04 02:31:35;;;;;;;8.47;7.00;;;10.40;99.90;;;;;;5054048;28;20459;-83
2024/02/04 02:34:03;;;;;;;10.17;9.10;;;10.40;99.90;;;;;;5058232;28;20461;-83
2024/02/04 02:36:37;;;;;;;10.10;8.93;;;10.40;99.90;;;;;;5055732;28;20474;-84
2024/02/04 02:39:14;;;;;;;13.10;10.90;;;10.40;99.90;;;;;;5062433;28;20489;-84
2024/02/04 02:41:44;;;;;;;13.60;11.30;;;10.40;99.90;;;;;;5060766;28;20462;-83
2024/02/04 02:44:13;;;;;;;12.63;10.03;;;10.40;99.90;;;;;;5059382;28;20456;-83
2024/02/04 02:46:41;;;;;;;12.70;10.90;;;10.40;99.90;;;;;;5061564;28;20554;-83
2024/02/04 02:49:08;;;;;;;15.07;12.00;;;10.40;99.90;;;;;;5061647;28;20468;-83
2024/02/04 02:51:35;;;;;;;15.90;13.80;;;10.50;99.90;;;;;;5062558;28;20454;-83
2024/02/04 02:54:01;;;;;;;16.93;12.77;;;10.40;99.90;;;;;;5061747;28;20552;-82
2024/02/04 02:56:28;;;;;;;15.30;13.70;;;10.40;99.90;;;;;;5062299;28;20586;-83
2024/02/04 02:58:56;;;;;;;16.43;13.37;;;10.50;99.90;;;;;;5063246;28;20493;-84
2024/02/04 03:01:23;;;;;;;16.50;14.57;;;10.50;99.90;;;;;;5061104;28;20455;-82
2024/02/04 03:03:50;;;;;;;16.43;14.50;;;10.50;99.90;;;;;;5059610;28;20539;-84
2024/02/04 03:06:17;;;;;;;19.40;15.87;;;10.50;99.90;;;;;;5061107;28;20538;-80
2024/02/04 03:08:44;;;;;;;17.50;15.70;;;10.50;99.90;;;;;;5060113;28;20495;-81
2024/02/04 03:11:11;;;;;;;18.10;15.63;;;10.50;99.90;;;;;;5057976;28;20491;-83
2024/02/04 03:13:39;;;;;;;21.53;18.13;;;10.50;99.90;;;;;;5052805;28;20444;-83
2024/02/04 03:16:11;;;;;;;24.53;19.07;;;10.50;99.90;;;;;;5059515;28;20588;-83
2024/02/04 03:18:41;;;;;;;25.23;18.10;;;10.60;99.90;;;;;;5059177;28;20467;-82
2024/02/04 03:21:13;;;;;;;25.77;19.47;;;10.60;99.90;;;;;;5060753;28;20455;-83
2024/02/04 03:23:41;;;;;;;21.90;19.07;;;10.50;99.90;;;;;;5059997;28;20460;-82
2024/02/04 03:26:09;;;;;;;24.07;18.20;;;10.60;99.90;;;;;;5060595;28;20841;-82
2024/02/04 03:28:36;;;;;;;25.10;19.13;;;10.50;99.90;;;;;;5059814;28;20987;-81
2024/02/04 03:31:03;;;;;;;23.83;18.30;;;10.50;99.90;;;;;;5057212;28;20446;-82
2024/02/04 03:33:31;;;;;;;28.23;19.90;;;10.50;99.90;;;;;;5046181;28;20975;-82
2024/02/04 03:35:58;;;;;;;24.87;19.00;;;10.50;99.90;;;;;;5055040;28;20495;-83
2024/02/04 03:38:26;;;;;;;23.10;18.60;;;10.40;99.90;;;;;;5055556;28;20546;-82
2024/02/04 03:40:53;;;;;;;25.03;20.17;;;10.50;99.90;;;;;;5047221;28;20526;-82
2024/02/04 03:43:19;;;;;;;28.50;22.03;;;10.50;99.90;;;;;;5047254;28;20460;-83
2024/02/04 03:45:46;;;;;;;30.43;20.80;;;10.60;99.90;;;;;;5054376;28;20488;-83
2024/02/04 03:48:13;;;;;;;25.63;19.50;;;10.60;99.90;;;;;;5056929;28;20441;-82
2024/02/04 03:50:41;;;;;;;24.90;20.03;;;10.50;99.90;;;;;;5055292;28;20528;-83
2024/02/04 03:53:08;;;;;;;28.47;20.93;;;10.60;99.90;;;;;;5056404;28;20495;-83
2024/02/04 03:55:35;;;;;;;21.87;16.80;;;10.50;99.90;;;;;;5056793;28;20574;-82
2024/02/04 03:58:02;;;;;;;23.43;18.50;;;10.60;99.90;;;;;;5051345;28;21059;-82
2024/02/04 04:00:28;;;;;;;24.83;19.67;;;10.60;99.90;;;;;;5053044;28;20503;-82
2024/02/04 04:02:55;;;;;;;23.93;19.27;;;10.60;99.90;;;;;;5056004;28;21151;-82
2024/02/04 04:05:22;;;;;;;25.03;19.07;;;10.60;99.90;;;;;;5057695;28;20983;-83
2024/02/04 04:07:50;;;;;;;27.40;19.30;;;10.70;99.90;;;;;;5058156;28;20451;-81
2024/02/04 04:10:17;;;;;;;24.33;18.67;;;10.60;99.90;;;;;;5054886;28;21007;-82
2024/02/04 04:12:44;;;;;;;24.27;19.53;;;10.60;99.90;;;;;;5047710;28;20466;-82
2024/02/04 04:15:11;;;;;;;25.13;18.97;;;10.60;99.90;;;;;;5048946;28;20922;-83
2024/02/04 04:17:38;;;;;;;24.00;18.40;;;10.70;99.90;;;;;;5055209;28;20462;-81
2024/02/04 04:20:07;;;;;;;24.43;19.20;;;10.70;99.90;;;;;;5055136;28;20465;-84
2024/02/04 04:22:33;;;;;;;21.40;16.43;;;10.60;99.90;;;;;;5052490;28;20554;-82
2024/02/04 04:25:01;;;;;;;21.77;17.53;;;10.60;99.90;;;;;;5069845;28;20487;-81
2024/02/04 04:27:28;;;;;;;17.23;13.57;;;10.60;99.90;;;;;;5069032;28;20516;-82
2024/02/04 04:29:55;;;;;;;20.80;16.13;;;10.60;99.90;;;;;;5065018;28;22307;-83
2024/02/04 04:32:22;;;;;;;19.43;14.97;;;10.60;99.90;;;;;;5045687;28;20448;-83
2024/02/04 04:34:51;;;;;;;22.80;16.00;;;10.60;99.90;;;;;;5051104;28;20496;-81
2024/02/04 04:37:17;;;;;;;19.73;15.60;;;10.60;99.90;;;;;;5048543;28;20451;-82
2024/02/04 04:39:44;;;;;;;19.53;15.17;;;10.60;99.90;;;;;;5053899;28;20476;-83
2024/02/04 04:42:12;;;;;;;19.00;13.87;;;10.60;99.90;;;;;;5051579;28;20457;-82
2024/02/04 04:44:40;;;;;;;20.23;15.10;;;10.60;99.90;;;;;;5051462;28;20453;-82
2024/02/04 04:47:07;;;;;;;18.70;15.10;;;10.60;99.90;;;;;;5049933;28;20468;-83
2024/02/04 04:49:34;;;;;;;19.60;15.20;;;10.50;99.90;;;;;;5051964;28;21252;-82
2024/02/04 04:52:00;;;;;;;21.27;16.37;;;10.60;99.90;;;;;;5047773;28;20491;-80
2024/02/04 04:54:28;;;;;;;26.90;18.83;;;10.50;99.90;;;;;;5048585;28;20454;-82
2024/02/04 04:56:55;;;;;;;21.27;16.20;;;10.50;99.90;;;;;;5049147;28;20497;-82
2024/02/04 04:59:23;;;;;;;20.90;16.63;;;10.50;99.90;;;;;;5050989;28;20472;-82
2024/02/04 05:01:50;;;;;;;19.67;15.47;;;10.50;99.90;;;;;;5047457;28;20466;-82
2024/02/04 05:04:19;;;;;;;22.40;17.37;;;10.50;99.90;;;;;;5046709;28;20844;-82
2024/02/04 05:06:46;;;;;;;20.60;17.20;;;10.50;99.90;;;;;;5051722;28;20459;-84
2024/02/04 05:09:13;;;;;;;18.97;14.83;;;10.50;99.90;;;;;;5052587;28;20925;-81
2024/02/04 05:11:39;;;;;;;22.87;17.90;;;10.50;99.90;;;;;;5052426;28;20458;-81
2024/02/04 05:14:06;;;;;;;28.40;19.20;;;10.50;99.90;;;;;;5053502;28;20462;-82
2024/02/04 05:16:36;;;;;;;22.33;16.67;;;10.40;99.90;;;;;;5052768;28;20505;-83
2024/02/04 05:19:03;;;;;;;19.63;15.03;;;10.40;99.90;;;;;;5054910;28;20472;-82
2024/02/04 05:21:30;;;;;;;19.93;17.30;;;10.40;99.90;;;;;;5053782;28;21065;-82
2024/02/04 05:23:57;;;;;;;26.23;15.50;;;10.40;99.90;;;;;;5055288;28;20455;-84
2024/02/04 05:26:24;;;;;;;26.37;16.80;;;10.40;99.90;;;;;;5055594;28;20456;-83
2024/02/04 05:28:50;;;;;;;26.30;17.63;;;10.40;99.90;;;;;;5057758;28;20494;-82
2024/02/04 05:31:17;;;;;;;31.53;19.60;;;10.40;99.90;;;;;;5058492;28;20835;-82
2024/02/04 05:33:45;;;;;;;24.93;18.23;;;10.40;99.90;;;;;;5057181;28;20456;-84
2024/02/04 05:36:12;;;;;;;24.83;18.07;;;10.40;99.90;;;;;;5058046;28;20483;-83
2024/02/04 05:38:39;;;;;;;20.93;17.80;;;10.40;99.90;;;;;;5058298;28;20904;-85
2024/02/04 05:41:06;;;;;;;24.57;18.30;;;10.40;99.90;;;;;;5059490;28;20490;-83
2024/02/04 05:43:33;;;;;;;23.37;18.70;;;10.40;99.90;;;;;;5054661;28;20473;-82
2024/02/04 05:45:59;;;;;;;22.30;18.50;;;10.40;99.90;;;;;;5062415;28;20888;-82
2024/02/04 05:48:26;;;;;;;24.47;18.10;;;10.30;99.90;;;;;;5062154;28;20543;-83
2024/02/04 05:50:54;;;;;;;27.37;18.67;;;10.30;99.90;;;;;;5055454;28;20534;-84
2024/02/04 05:53:21;;;;;;;26.70;16.77;;;10.30;99.90;;;;;;5062068;28;20555;-83
2024/02/04 05:55:48;;;;;;;20.97;16.40;;;10.30;99.90;;;;;;5062990;28;20501;-83
2024/02/04 05:58:15;;;;;;;20.70;16.60;;;10.40;99.90;;;;;;5058492;28;20454;-82
2024/02/04 06:00:42;;;;;;;25.20;15.80;;;10.40;99.90;;;;;;5063668;28;20479;-83
2024/02/04 06:03:08;;;;;;;19.40;15.50;;;10.30;99.90;;;;;;5059192;28;20452;-84
2024/02/04 06:05:36;;;;;;;17.67;13.80;;;10.40;99.90;;;;;;5058026;28;20448;-83
2024/02/04 06:08:04;;;;;;;23.33;16.20;;;10.40;99.90;;;;;;5057733;28;20523;-83
2024/02/04 06:10:31;;;;;;;19.57;14.80;;;10.40;99.90;;;;;;5058774;28;20853;-83
2024/02/04 06:12:58;;;;;;;29.80;17.37;;;10.40;99.90;;;;;;5051221;28;20460;-83
2024/02/04 06:15:25;;;;;;;21.53;17.10;;;10.40;99.90;;;;;;5054824;28;20467;-82
2024/02/04 06:17:52;;;;;;;19.10;14.23;;;10.30;99.90;;;;;;5052113;28;20479;-83
2024/02/04 06:20:18;;;;;;;25.30;15.37;;;10.30;99.90;;;;;;5062078;28;20510;-83
2024/02/04 06:22:45;;;;;;;20.50;15.17;;;10.40;99.90;;;;;;5060085;28;20471;-83
2024/02/04 06:25:14;;;;;;;22.97;16.50;;;10.40;99.90;;;;;;5053017;28;20455;-81
2024/02/04 06:27:41;;;;;;;17.67;15.60;;;10.40;99.90;;;;;;5056282;28;20462;-83
2024/02/04 06:30:08;;;;;;;21.30;16.40;;;10.50;99.90;;;;;;5058739;28;20539;-82
2024/02/04 06:32:35;;;;;;;22.37;17.20;;;10.50;99.90;;;;;;5055284;28;20461;-82
2024/02/04 06:35:02;;;;;;;29.97;18.77;;;10.50;99.90;;;;;;5053625;28;20816;-82
2024/02/04 06:37:29;;;;;;;24.40;16.50;;;10.50;99.90;;;;;;5052235;28;20592;-83
2024/02/04 06:39:56;;;;;;;21.90;16.93;;;10.50;99.90;;;;;;5041533;28;20491;-82
2024/02/04 06:42:24;;;;;;;23.57;16.50;;;10.60;99.90;;;;;;5049596;28;20958;-83
2024/02/04 06:44:51;;;;;;;25.07;18.33;;;10.60;99.90;;;;;;5045420;28;20555;-81
2024/02/04 06:47:18;;;;;;;27.10;20.40;;;10.60;99.90;;;;;;5053207;28;20455;-82
2024/02/04 06:49:46;;;;;;;28.63;22.10;;;10.60;99.90;;;;;;5051226;28;20486;-82
2024/02/04 06:52:12;;;;;;;39.33;23.73;;;10.60;99.90;;;;;;5047864;28;20456;-82
2024/02/04 06:54:39;;;;;;;31.07;21.30;;;10.60;99.90;;;;;;5045621;28;20513;-82
2024/02/04 06:57:06;;;;;;;35.57;24.30;;;10.60;99.90;;;;;;5048168;28;20472;-82
2024/02/04 06:59:34;;;;;;;32.67;22.90;;;10.50;99.90;;;;;;5055847;28;20576;-82
2024/02/04 07:02:01;;;;;;;31.47;22.97;;;10.40;99.90;;;;;;5054607;28;20466;-80
2024/02/04 07:04:28;;;;;;;36.90;23.40;;;10.40;99.90;;;;;;5057553;28;20536;-85
2024/02/04 07:06:55;;;;;;;29.50;22.17;;;10.40;99.90;;;;;;5055880;28;20492;-81
2024/02/04 07:09:21;;;;;;;30.83;22.00;;;10.40;99.90;;;;;;5054609;28;20478;-82
2024/02/04 07:11:48;;;;;;;32.37;22.00;;;10.40;99.90;;;;;;5047013;28;20488;-81
2024/02/04 07:14:15;;;;;;;29.80;21.37;;;10.40;99.90;;;;;;5053959;28;20463;-81
2024/02/04 07:16:43;;;;;;;25.27;18.83;;;10.50;99.90;;;;;;5045505;28;20571;-83
2024/02/04 07:19:10;;;;;;;25.80;19.30;;;10.50;99.90;;;;;;5048888;28;20532;-83
2024/02/04 07:21:37;;;;;;;27.50;18.90;;;10.40;99.90;;;;;;5043721;28;20456;-80
2024/02/04 07:24:04;;;;;;;23.20;17.33;;;10.40;99.90;;;;;;5048611;28;20464;-81
2024/02/04 07:26:31;;;;;;;27.40;18.20;;;10.40;99.90;;;;;;5040861;28;20547;-82
2024/02/04 07:28:58;;;;;;;25.10;18.60;;;10.40;99.90;;;;;;5041328;28;20468;-82
2024/02/04 07:31:24;;;;;;;26.10;16.27;;;10.40;99.90;;;;;;5050956;28;20459;-81
2024/02/04 07:33:52;;;;;;;23.80;16.90;;;10.40;99.90;;;;;;5045221;28;20444;-81
2024/02/04 07:36:19;;;;;;;22.07;16.07;;;10.40;99.90;;;;;;5037919;28;20855;-81
2024/02/04 07:38:46;;;;;;;20.97;16.20;;;10.40;99.90;;;;;;5043094;28;20487;-81
2024/02/04 07:41:15;;;;;;;23.00;16.07;;;10.40;99.90;;;;;;5040728;28;20475;-82
2024/02/04 07:43:43;;;;;;;20.67;14.97;;;10.50;99.90;;;;;;5046329;28;20463;-81
2024/02/04 07:46:10;;;;;;;16.50;12.93;;;10.50;99.90;;;;;;5047560;28;20943;-81
2024/02/04 07:48:37;;;;;;;18.03;14.83;;;10.50;99.90;;;;;;5047056;28;20498;-80
2024/02/04 07:51:05;;;;;;;20.37;13.50;;;10.50;99.90;;;;;;5047041;28;20452;-81
2024/02/04 07:53:32;;;;;;;16.40;12.20;;;10.40;99.90;;;;;;5047900;28;20840;-82
2024/02/04 07:55:59;;;;;;;19.80;14.47;;;10.50;99.90;;;;;;5045737;28;20535;-82
2024/02/04 07:58:27;;;;;;;18.00;12.10;;;10.50;99.90;;;;;;5046676;28;20877;-83
2024/02/04 08:00:54;;;;;;;20.00;13.00;;;10.50;99.90;;;;;;5050998;28;20471;-83
2024/02/04 08:03:20;;;;;;;20.20;12.00;;;10.50;99.90;;;;;;5055506;28;20456;-82
2024/02/04 08:05:47;;;;;;;19.63;12.93;;;10.50;99.90;;;;;;5046669;28;20572;-82
2024/02/04 08:08:15;;;;;;;15.00;11.60;;;10.50;99.90;;;;;;5045456;28;20460;-82
2024/02/04 08:10:43;;;;;;;19.80;11.83;;;10.60;99.90;;;;;;5046612;28;20459;-81
2024/02/04 08:13:10;;;;;;;14.40;11.97;;;10.60;99.90;;;;;;5051752;28;20463;-84
2024/02/04 08:15:37;;;;;;;21.30;12.97;;;10.50;99.90;;;;;;5039742;28;20462;-81
2024/02/04 08:18:04;;;;;;;14.93;10.43;;;10.60;99.90;;;;;;5043488;28;20486;-82
2024/02/04 08:20:31;;;;;;;13.87;9.60;;;10.60;99.90;;;;;;5049267;28;20468;-81
2024/02/04 08:22:58;;;;;;;16.30;10.93;;;10.60;99.90;;;;;;5050028;28;20441;-82
2024/02/04 08:25:26;;;;;;;10.57;8.83;;;10.60;99.90;;;;;;5058162;28;20460;-82
2024/02/04 08:27:53;;;;;;;12.50;9.33;;;10.60;99.90;;;;;;5057565;28;20441;-81
2024/02/04 08:30:20;;;;;;;12.60;9.33;;;10.70;99.90;;;;;;5049792;28;20528;-81
2024/02/04 08:32:47;;;;;;;10.43;9.33;;;10.80;99.90;;;;;;5047919;28;20561;-81
2024/02/04 08:35:14;;;;;;;12.83;9.93;;;10.70;99.90;;;;;;5042015;28;20459;-81
2024/02/04 08:37:41;;;;;;;12.43;7.93;;;10.70;99.90;;;;;;5045112;28;20490;-83
2024/02/04 08:40:10;;;;;;;9.73;6.77;;;10.80;99.90;;;;;;5047218;28;20574;-83
2024/02/04 08:42:38;;;;;;;9.13;6.70;;;10.80;99.90;;;;;;5054868;28;20497;-82
2024/02/04 08:45:06;;;;;;;8.70;5.70;;;10.80;99.90;;;;;;5047140;28;20455;-83
2024/02/04 08:47:33;;;;;;;8.73;6.80;;;10.70;99.90;;;;;;5056354;28;20887;-80
2024/02/04 08:50:00;;;;;;;9.57;6.53;;;10.70;99.90;;;;;;5049148;28;20487;-82
2024/02/04 08:52:26;;;;;;;10.93;6.50;;;10.70;99.90;;;;;;5057168;28;20466;-80
2024/02/04 08:54:53;;;;;;;11.10;7.30;;;10.80;99.90;;;;;;5041917;28;20543;-82
2024/02/04 08:57:20;;;;;;;8.10;7.00;;;10.80;99.90;;;;;;5057117;28;20495;-83
2024/02/04 08:59:48;;;;;;;9.40;7.70;;;10.80;99.90;;;;;;5057297;28;20856;-80
2024/02/04 09:02:15;;;;;;;8.77;6.70;;;10.90;99.90;;;;;;5045801;28;20449;-80
2024/02/04 09:04:42;;;;;;;9.40;6.57;;;10.90;99.90;;;;;;5048376;28;20969;-80
2024/02/04 09:07:09;;;;;;;8.63;6.87;;;11.00;99.90;;;;;;5042532;28;20459;-81
2024/02/04 09:09:35;;;;;;;8.73;6.93;;;11.10;99.90;;;;;;5058501;28;20579;-82
2024/02/04 09:12:02;;;;;;;8.77;6.57;;;11.10;99.90;;;;;;5056948;28;20461;-83
2024/02/04 09:14:29;;;;;;;6.57;5.20;;;11.00;99.90;;;;;;5050276;28;20877;-84
2024/02/04 09:16:57;;;;;;;5.17;4.33;;;11.10;99.90;;;;;;5059126;28;20551;-85
2024/02/04 09:19:25;;;;;;;5.80;4.67;;;11.10;99.90;;;;;;5052089;28;20490;-82
2024/02/04 09:21:52;;;;;;;3.40;2.90;;;11.00;99.90;;;;;;5066078;28;20464;-81
2024/02/04 09:24:19;;;;;;;5.50;3.67;;;10.90;99.90;;;;;;5064337;28;20525;-84
2024/02/04 09:26:46;;;;;;;5.60;4.50;;;10.80;99.90;;;;;;5059169;28;20504;-82
2024/02/04 09:29:12;;;;;;;6.47;4.57;;;10.70;99.90;;;;;;5063490;28;20473;-83
2024/02/04 09:31:39;;;;;;;5.40;4.70;;;10.70;99.90;;;;;;5065509;28;20606;-81
2024/02/04 09:34:07;;;;;;;8.30;5.27;;;10.60;99.90;;;;;;5064510;28;20952;-81
2024/02/04 09:36:35;;;;;;;6.90;5.40;;;10.70;99.90;;;;;;5063964;28;20449;-83
2024/02/04 09:39:02;;;;;;;7.87;5.97;;;10.70;99.90;;;;;;5060215;28;20554;-82
2024/02/04 09:41:28;;;;;;;8.17;6.50;;;10.80;99.90;;;;;;5052544;28;20986;-81
2024/02/04 09:43:56;;;;;;;6.17;5.57;;;10.80;99.90;;;;;;5057284;28;20537;-80
2024/02/04 09:46:23;;;;;;;10.27;7.97;;;10.80;99.90;;;;;;5048463;28;20440;-80
2024/02/04 09:48:52;;;;;;;11.30;8.13;;;10.70;99.90;;;;;;5056539;28;20488;-80
2024/02/04 09:51:20;;;;;;;11.60;8.50;;;10.70;99.90;;;;;;5050028;28;21031;-80
2024/02/04 09:53:54;;;;;;;13.00;9.90;;;10.60;99.90;;;;;;5053987;28;20532;-81
2024/02/04 09:56:25;;;;;;;16.83;9.80;;;10.60;99.90;;;;;;5046629;28;20460;-81
2024/02/04 09:58:52;;;;;;;13.77;10.97;;;10.60;99.90;;;;;;5055355;28;20479;-80
2024/02/04 10:01:20;;;;;;;11.47;8.83;;;10.70;99.90;;;;;;5050212;28;21032;-82
2024/02/04 10:03:48;;;;;;;11.03;9.00;;;10.70;99.90;;;;;;5054604;28;20455;-81
2024/02/04 10:06:15;;;;;;;11.67;8.63;;;10.70;99.90;;;;;;5052811;28;20546;-80
2024/02/04 10:08:45;;;;;;;14.03;8.83;;;10.90;99.90;;;;;;5048579;28;20546;-83
2024/02/04 10:11:12;;;;;;;10.20;8.33;;;10.90;99.90;;;;;;5053344;28;20948;-80
2024/02/04 10:13:44;;;;;;;11.03;8.40;;;10.90;99.90;;;;;;5048049;28;20445;-81
2024/02/04 10:16:12;;;;;;;9.80;8.33;;;10.80;99.90;;;;;;5054425;28;20478;-83
2024/02/04 10:18:41;;;;;;;10.40;8.57;;;10.90;99.90;;;;;;5055812;28;20593;-81
2024/02/04 10:21:16;;;;;;;10.80;8.90;;;10.80;99.90;;;;;;5054389;28;20483;-81
2024/02/04 10:23:44;;;;;;;10.40;9.03;;;10.80;99.90;;;;;;5049411;28;20463;-82
2024/02/04 10:26:11;;;;;;;9.33;8.10;;;10.90;99.90;;;;;;5055821;28;20470;-81
2024/02/04 10:28:39;;;;;;;11.30;8.77;;;11.00;99.90;;;;;;5050039;28;20483;-81
2024/02/04 10:31:06;;;;;;;11.17;8.37;;;11.00;99.90;;;;;;5051947;28;20473;-81
2024/02/04 10:33:32;;;;;;;12.77;10.00;;;11.00;99.90;;;;;;5048681;28;20533;-82
2024/02/04 10:35:59;;;;;;;11.27;8.20;;;11.00;99.90;;;;;;5063334;28;20433;-81
2024/02/04 10:38:26;;;;;;;10.93;8.20;;;11.00;99.90;;;;;;5060211;28;20522;-80
2024/02/04 10:40:55;;;;;;;8.70;7.30;;;11.00;99.90;;;;;;5055027;28;20547;-82
2024/02/04 10:43:23;;;;;;;10.77;8.77;;;11.00;99.90;;;;;;5061169;28;20519;-80
2024/02/04 10:45:56;;;;;;;10.37;7.60;;;11.00;99.90;;;;;;5066511;28;20517;-81
2024/02/04 10:48:27;;;;;;;10.70;7.87;;;11.00;99.90;;;;;;5066071;28;20500;-82
2024/02/04 10:50:58;;;;;;;11.07;7.93;;;10.90;99.90;;;;;;5064341;28;20475;-81
2024/02/04 10:53:26;;;;;;;8.93;6.70;;;10.80;99.90;;;;;;5066796;28;20486;-81
2024/02/04 10:56:04;;;;;;;10.30;7.87;;;10.70;99.90;;;;;;5067324;28;20452;-82
2024/02/04 10:58:31;;;;;;;10.47;8.27;;;10.70;99.90;;;;;;5065306;28;20520;-83
2024/02/04 11:00:58;;;;;;;8.20;7.10;;;10.70;99.90;;;;;;5071118;28;20450;-86
2024/02/04 11:03:27;;;;;;;8.70;7.47;;;10.70;99.90;;;;;;5066283;28;20479;-81
2024/02/04 11:05:55;;;;;;;10.87;8.13;;;10.70;99.90;;;;;;5063303;28;20451;-83
2024/02/04 11:08:23;;;;;;;8.80;7.90;;;10.80;99.90;;;;;;5059101;28;20457;-82
2024/02/04 11:10:49;;;;;;;8.17;7.27;;;11.10;99.90;;;;;;5051226;28;20464;-82
2024/02/04 11:13:18;;;;;;;10.80;6.70;;;11.30;99.90;;;;;;5056545;28;20525;-83
2024/02/04 11:15:46;;;;;;;11.40;8.17;;;11.60;99.90;;;;;;5045847;28;20540;-81
2024/02/04 11:18:38;;;;;;;7.67;6.80;;;11.90;99.90;;;;;;5062141;28;20519;-81
2024/02/04 11:21:25;;;;;;;6.70;5.27;;;12.10;99.90;;;;;;5059940;28;20487;-82
2024/02/04 11:24:02;;;;;;;7.07;5.30;;;12.10;99.90;;;;;;5056800;28;20535;-81
2024/02/04 11:26:29;;;;;;;7.07;5.73;;;12.10;99.90;;;;;;5059261;28;20484;-85
2024/02/04 11:28:58;;;;;;;7.73;5.83;;;12.00;99.90;;;;;;5057809;28;20555;-85
2024/02/04 11:31:29;;;;;;;7.20;5.07;;;11.90;99.90;;;;;;5072830;28;20469;-86
2024/02/04 11:33:57;;;;;;;5.87;5.30;;;11.80;99.90;;;;;;5061464;28;20445;-82
2024/02/04 11:36:26;;;;;;;8.73;5.53;;;11.70;99.90;;;;;;5060446;28;20515;-84
2024/02/04 11:38:53;;;;;;;7.63;5.90;;;11.60;99.90;;;;;;5062999;28;20975;-86
2024/02/04 11:41:23;;;;;;;10.57;7.50;;;11.60;99.90;;;;;;5068163;28;20487;-86
2024/02/04 11:43:53;;;;;;;10.27;6.70;;;11.50;99.90;;;;;;5062571;28;20471;-81
2024/02/04 11:46:21;;;;;;;7.50;6.80;;;11.60;99.90;;;;;;5058319;28;20843;-80
2024/02/04 11:48:54;;;;;;;5.70;5.10;;;11.70;99.90;;;;;;5059523;28;20468;-82
2024/02/04 11:51:24;;;;;;;5.53;4.90;;;11.80;99.90;;;;;;5061383;28;20449;-81
2024/02/04 11:53:51;;;;;;;5.23;4.37;;;12.00;99.90;;;;;;5063744;28;20460;-79
2024/02/04 11:56:19;;;;;;;5.50;4.37;;;12.20;99.90;;;;;;5063660;28;20519;-81
2024/02/04 11:58:46;;;;;;;5.07;4.00;;;12.10;99.90;;;;;;5054380;28;20504;-81
2024/02/04 12:01:13;;;;;;;4.70;4.20;;;11.90;99.90;;;;;;5053528;28;20541;-81
2024/02/04 12:03:42;;;;;;;4.77;3.50;;;11.80;99.90;;;;;;5054390;28;20482;-81
2024/02/04 12:06:15;;;;;;;4.37;3.97;;;11.70;99.90;;;;;;5057485;28;20440;-81
2024/02/04 12:08:42;;;;;;;3.47;3.17;;;11.70;99.90;;;;;;5054169;28;21053;-82
2024/02/04 12:11:12;;;;;;;4.40;3.10;;;11.50;99.90;;;;;;5066090;28;20466;-80
2024/02/04 12:13:40;;;;;;;4.67;2.90;;;11.40;99.90;;;;;;5054346;28;20441;-79
2024/02/04 12:16:09;;;;;;;4.00;2.90;;;11.40;99.90;;;;;;5056767;28;20483;-82
2024/02/04 12:18:36;;;;;;;4.30;3.90;;;11.30;99.90;;;;;;5053997;28;20494;-79
2024/02/04 12:21:04;;;;;;;4.07;3.30;;;11.20;99.90;;;;;;5053735;28;20459;-81
2024/02/04 12:23:31;;;;;;;4.73;4.23;;;11.30;99.90;;;;;;5061899;28;20481;-83
2024/02/04 12:25:58;;;;;;;4.07;3.70;;;11.30;99.90;;;;;;5061068;28;20514;-81
2024/02/04 12:28:25;;;;;;;6.03;5.17;;;11.30;99.90;;;;;;5061708;28;20508;-82
2024/02/04 12:30:56;;;;;;;6.10;5.50;;;11.30;99.90;;;;;;5057124;28;20531;-82
2024/02/04 12:33:23;;;;;;;7.10;5.70;;;11.30;99.90;;;;;;5057877;28;20534;-83
2024/02/04 12:35:55;;;;;;;6.13;5.43;;;11.30;99.90;;;;;;5053400;28;20489;-81
2024/02/04 12:38:23;;;;;;;8.10;6.20;;;11.10;99.90;;;;;;5055635;28;20481;-82